sensor_id;sensor_type;location;lat;lon;timestamp;P1;durP1;ratioP1;P2;durP2;ratioP2
35326;SDS011;21436;52.348;20.928;2024-02-15T00:01:21;17.10;;;7.22;;
35326;SDS011;21436;52.348;20.928;2024-02-15T00:03:48;17.25;;;7.35;;
35326;SDS011;21436;52.348;20.928;2024-02-15T00:06:19;19.15;;;7.22;;
35326;SDS011;21436;52.348;20.928;2024-02-15T00:08:47;18.52;;;8.20;;
35326;SDS011;21436;52.348;20.928;2024-02-15T00:11:15;17.05;;;7.85;;
35326;SDS011;21436;52.348;20.928;2024-02-15T00:13:42;19.58;;;7.35;;
35326;SDS011;21436;52.348;20.928;2024-02-15T00:16:14;17.75;;;7.78;;
35326;SDS011;21436;52.348;20.928;2024-02-15T00:18:42;14.32;;;7.40;;
35326;SDS011;21436;52.348;20.928;2024-02-15T00:21:10;16.98;;;7.70;;
35326;SDS011;21436;52.348;20.928;2024-02-15T00:23:40;17.77;;;7.45;;
35326;SDS011;21436;52.348;20.928;2024-02-15T00:26:09;18.73;;;8.25;;
35326;SDS011;21436;52.348;20.928;2024-02-15T00:28:41;20.00;;;8.13;;
35326;SDS011;21436;52.348;20.928;2024-02-15T00:31:09;17.30;;;7.93;;
35326;SDS011;21436;52.348;20.928;2024-02-15T00:33:36;17.98;;;8.10;;
35326;SDS011;21436;52.348;20.928;2024-02-15T00:36:07;18.45;;;7.65;;
35326;SDS011;21436;52.348;20.928;2024-02-15T00:38:35;20.10;;;8.15;;
35326;SDS011;21436;52.348;20.928;2024-02-15T00:41:04;21.00;;;7.78;;
35326;SDS011;21436;52.348;20.928;2024-02-15T00:43:34;16.73;;;7.82;;
35326;SDS011;21436;52.348;20.928;2024-02-15T00:46:03;17.83;;;8.55;;
35326;SDS011;21436;52.348;20.928;2024-02-15T00:48:30;16.88;;;8.07;;
35326;SDS011;21436;52.348;20.928;2024-02-15T00:50:59;21.10;;;8.55;;
35326;SDS011;21436;52.348;20.928;2024-02-15T00:53:29;19.92;;;7.97;;
35326;SDS011;21436;52.348;20.928;2024-02-15T00:55:57;19.58;;;8.88;;
35326;SDS011;21436;52.348;20.928;2024-02-15T00:58:26;22.20;;;8.25;;
35326;SDS011;21436;52.348;20.928;2024-02-15T01:00:54;18.80;;;8.88;;
35326;SDS011;21436;52.348;20.928;2024-02-15T01:03:23;21.10;;;8.35;;
35326;SDS011;21436;52.348;20.928;2024-02-15T01:05:52;17.45;;;8.18;;
35326;SDS011;21436;52.348;20.928;2024-02-15T01:08:23;22.77;;;8.85;;
35326;SDS011;21436;52.348;20.928;2024-02-15T01:10:51;18.20;;;8.68;;
35326;SDS011;21436;52.348;20.928;2024-02-15T01:13:20;22.30;;;8.65;;
35326;SDS011;21436;52.348;20.928;2024-02-15T01:15:50;19.38;;;8.18;;
35326;SDS011;21436;52.348;20.928;2024-02-15T01:18:18;17.38;;;8.70;;
35326;SDS011;21436;52.348;20.928;2024-02-15T01:20:46;20.58;;;9.02;;
35326;SDS011;21436;52.348;20.928;2024-02-15T01:23:15;17.75;;;8.38;;
35326;SDS011;21436;52.348;20.928;2024-02-15T01:25:43;17.90;;;8.63;;
35326;SDS011;21436;52.348;20.928;2024-02-15T01:28:10;20.02;;;9.13;;
35326;SDS011;21436;52.348;20.928;2024-02-15T01:30:39;19.02;;;8.77;;
35326;SDS011;21436;52.348;20.928;2024-02-15T01:33:07;20.48;;;9.63;;
35326;SDS011;21436;52.348;20.928;2024-02-15T01:35:36;17.73;;;8.63;;
35326;SDS011;21436;52.348;20.928;2024-02-15T01:38:03;20.40;;;8.35;;
35326;SDS011;21436;52.348;20.928;2024-02-15T01:40:32;17.33;;;8.80;;
35326;SDS011;21436;52.348;20.928;2024-02-15T01:43:00;20.67;;;8.85;;
35326;SDS011;21436;52.348;20.928;2024-02-15T01:45:28;19.70;;;8.95;;
35326;SDS011;21436;52.348;20.928;2024-02-15T01:47:55;16.05;;;7.65;;
35326;SDS011;21436;52.348;20.928;2024-02-15T01:50:23;19.90;;;9.10;;
35326;SDS011;21436;52.348;20.928;2024-02-15T01:52:54;17.60;;;8.93;;
35326;SDS011;21436;52.348;20.928;2024-02-15T01:55:22;17.83;;;8.57;;
35326;SDS011;21436;52.348;20.928;2024-02-15T01:57:53;23.80;;;8.73;;
35326;SDS011;21436;52.348;20.928;2024-02-15T02:00:22;21.75;;;9.27;;
35326;SDS011;21436;52.348;20.928;2024-02-15T02:02:51;22.25;;;8.50;;
35326;SDS011;21436;52.348;20.928;2024-02-15T02:05:20;24.25;;;8.70;;
35326;SDS011;21436;52.348;20.928;2024-02-15T02:07:48;18.85;;;8.85;;
35326;SDS011;21436;52.348;20.928;2024-02-15T02:10:17;20.58;;;8.80;;
35326;SDS011;21436;52.348;20.928;2024-02-15T02:12:45;17.15;;;8.50;;
35326;SDS011;21436;52.348;20.928;2024-02-15T02:15:13;19.08;;;9.52;;
35326;SDS011;21436;52.348;20.928;2024-02-15T02:17:42;22.23;;;9.02;;
35326;SDS011;21436;52.348;20.928;2024-02-15T02:20:10;19.85;;;9.20;;
35326;SDS011;21436;52.348;20.928;2024-02-15T02:22:41;19.42;;;8.93;;
35326;SDS011;21436;52.348;20.928;2024-02-15T02:25:09;20.70;;;9.13;;
35326;SDS011;21436;52.348;20.928;2024-02-15T02:27:38;22.05;;;8.57;;
35326;SDS011;21436;52.348;20.928;2024-02-15T02:30:12;21.88;;;10.00;;
35326;SDS011;21436;52.348;20.928;2024-02-15T02:32:49;22.40;;;9.68;;
35326;SDS011;21436;52.348;20.928;2024-02-15T02:35:17;22.42;;;9.25;;
35326;SDS011;21436;52.348;20.928;2024-02-15T02:37:48;17.40;;;9.07;;
35326;SDS011;21436;52.348;20.928;2024-02-15T02:40:17;24.33;;;10.10;;
35326;SDS011;21436;52.348;20.928;2024-02-15T02:42:51;21.75;;;9.60;;
35326;SDS011;21436;52.348;20.928;2024-02-15T02:45:20;20.30;;;9.13;;
35326;SDS011;21436;52.348;20.928;2024-02-15T02:47:53;19.98;;;8.93;;
35326;SDS011;21436;52.348;20.928;2024-02-15T02:50:21;21.27;;;8.98;;
35326;SDS011;21436;52.348;20.928;2024-02-15T02:52:52;18.35;;;8.80;;
35326;SDS011;21436;52.348;20.928;2024-02-15T02:55:22;20.17;;;9.32;;
35326;SDS011;21436;52.348;20.928;2024-02-15T02:57:50;21.02;;;9.95;;
35326;SDS011;21436;52.348;20.928;2024-02-15T03:00:18;23.90;;;9.40;;
35326;SDS011;21436;52.348;20.928;2024-02-15T03:02:47;22.70;;;9.82;;
35326;SDS011;21436;52.348;20.928;2024-02-15T03:05:17;22.35;;;9.25;;
35326;SDS011;21436;52.348;20.928;2024-02-15T03:07:49;23.90;;;10.43;;
35326;SDS011;21436;52.348;20.928;2024-02-15T03:10:19;23.25;;;10.55;;
35326;SDS011;21436;52.348;20.928;2024-02-15T03:12:49;20.63;;;9.70;;
35326;SDS011;21436;52.348;20.928;2024-02-15T03:15:17;21.08;;;9.73;;
35326;SDS011;21436;52.348;20.928;2024-02-15T03:17:47;21.67;;;9.93;;
35326;SDS011;21436;52.348;20.928;2024-02-15T03:20:16;18.88;;;9.43;;
35326;SDS011;21436;52.348;20.928;2024-02-15T03:22:52;20.55;;;10.07;;
35326;SDS011;21436;52.348;20.928;2024-02-15T03:25:24;25.25;;;10.07;;
35326;SDS011;21436;52.348;20.928;2024-02-15T03:27:53;24.67;;;10.70;;
35326;SDS011;21436;52.348;20.928;2024-02-15T03:30:22;27.35;;;10.13;;
35326;SDS011;21436;52.348;20.928;2024-02-15T03:32:53;22.10;;;9.48;;
35326;SDS011;21436;52.348;20.928;2024-02-15T03:35:22;21.35;;;10.07;;
35326;SDS011;21436;52.348;20.928;2024-02-15T03:37:52;18.92;;;9.75;;
35326;SDS011;21436;52.348;20.928;2024-02-15T03:40:20;25.42;;;10.23;;
35326;SDS011;21436;52.348;20.928;2024-02-15T03:42:49;21.40;;;10.38;;
35326;SDS011;21436;52.348;20.928;2024-02-15T03:45:22;21.05;;;10.70;;
35326;SDS011;21436;52.348;20.928;2024-02-15T03:47:54;25.80;;;11.05;;
35326;SDS011;21436;52.348;20.928;2024-02-15T03:50:26;21.67;;;9.77;;
35326;SDS011;21436;52.348;20.928;2024-02-15T03:52:55;23.65;;;10.75;;
35326;SDS011;21436;52.348;20.928;2024-02-15T03:55:24;19.55;;;9.73;;
35326;SDS011;21436;52.348;20.928;2024-02-15T03:57:52;24.27;;;11.20;;
35326;SDS011;21436;52.348;20.928;2024-02-15T04:00:22;25.02;;;11.35;;
35326;SDS011;21436;52.348;20.928;2024-02-15T04:02:53;23.92;;;10.73;;
35326;SDS011;21436;52.348;20.928;2024-02-15T04:05:21;26.30;;;11.30;;
35326;SDS011;21436;52.348;20.928;2024-02-15T04:07:50;26.05;;;11.38;;
35326;SDS011;21436;52.348;20.928;2024-02-15T04:10:18;22.40;;;10.32;;
35326;SDS011;21436;52.348;20.928;2024-02-15T04:12:47;26.33;;;11.20;;
35326;SDS011;21436;52.348;20.928;2024-02-15T04:15:15;25.65;;;10.35;;
35326;SDS011;21436;52.348;20.928;2024-02-15T04:17:45;26.52;;;11.05;;
35326;SDS011;21436;52.348;20.928;2024-02-15T04:20:13;21.98;;;10.18;;
35326;SDS011;21436;52.348;20.928;2024-02-15T04:22:43;22.70;;;10.48;;
35326;SDS011;21436;52.348;20.928;2024-02-15T04:25:12;26.23;;;10.93;;
35326;SDS011;21436;52.348;20.928;2024-02-15T04:30:14;23.83;;;10.27;;
35326;SDS011;21436;52.348;20.928;2024-02-15T04:32:43;24.15;;;10.27;;
35326;SDS011;21436;52.348;20.928;2024-02-15T04:35:12;23.40;;;10.65;;
35326;SDS011;21436;52.348;20.928;2024-02-15T04:37:41;24.38;;;11.13;;
35326;SDS011;21436;52.348;20.928;2024-02-15T04:40:09;26.58;;;10.77;;
35326;SDS011;21436;52.348;20.928;2024-02-15T04:42:41;24.42;;;10.90;;
35326;SDS011;21436;52.348;20.928;2024-02-15T04:45:11;24.45;;;11.57;;
35326;SDS011;21436;52.348;20.928;2024-02-15T04:47:41;23.42;;;11.20;;
35326;SDS011;21436;52.348;20.928;2024-02-15T04:50:09;23.98;;;11.38;;
35326;SDS011;21436;52.348;20.928;2024-02-15T04:52:37;25.15;;;10.85;;
35326;SDS011;21436;52.348;20.928;2024-02-15T04:55:06;22.23;;;10.18;;
35326;SDS011;21436;52.348;20.928;2024-02-15T04:57:33;22.20;;;10.93;;
35326;SDS011;21436;52.348;20.928;2024-02-15T05:00:04;26.50;;;10.80;;
35326;SDS011;21436;52.348;20.928;2024-02-15T05:02:38;28.75;;;11.82;;
35326;SDS011;21436;52.348;20.928;2024-02-15T05:05:11;22.73;;;10.93;;
35326;SDS011;21436;52.348;20.928;2024-02-15T05:07:43;25.40;;;11.68;;
35326;SDS011;21436;52.348;20.928;2024-02-15T05:10:11;22.08;;;11.18;;
35326;SDS011;21436;52.348;20.928;2024-02-15T05:12:39;23.30;;;11.18;;
35326;SDS011;21436;52.348;20.928;2024-02-15T05:15:08;24.10;;;10.63;;
35326;SDS011;21436;52.348;20.928;2024-02-15T05:17:40;21.77;;;11.40;;
35326;SDS011;21436;52.348;20.928;2024-02-15T05:20:09;21.20;;;11.25;;
35326;SDS011;21436;52.348;20.928;2024-02-15T05:22:39;29.95;;;11.82;;
35326;SDS011;21436;52.348;20.928;2024-02-15T05:25:16;26.35;;;11.55;;
35326;SDS011;21436;52.348;20.928;2024-02-15T05:27:52;29.23;;;11.70;;
35326;SDS011;21436;52.348;20.928;2024-02-15T05:30:22;22.60;;;11.15;;
35326;SDS011;21436;52.348;20.928;2024-02-15T05:32:50;23.45;;;11.15;;
35326;SDS011;21436;52.348;20.928;2024-02-15T05:35:22;25.27;;;12.23;;
35326;SDS011;21436;52.348;20.928;2024-02-15T05:37:54;23.60;;;11.57;;
35326;SDS011;21436;52.348;20.928;2024-02-15T05:40:23;29.13;;;11.73;;
35326;SDS011;21436;52.348;20.928;2024-02-15T05:42:57;27.70;;;11.85;;
35326;SDS011;21436;52.348;20.928;2024-02-15T05:47:54;25.88;;;11.57;;
35326;SDS011;21436;52.348;20.928;2024-02-15T05:50:22;26.42;;;12.35;;
35326;SDS011;21436;52.348;20.928;2024-02-15T05:52:51;24.73;;;11.88;;
35326;SDS011;21436;52.348;20.928;2024-02-15T05:55:22;24.67;;;12.13;;
35326;SDS011;21436;52.348;20.928;2024-02-15T05:57:50;27.33;;;12.55;;
35326;SDS011;21436;52.348;20.928;2024-02-15T06:00:18;26.58;;;12.98;;
35326;SDS011;21436;52.348;20.928;2024-02-15T06:02:50;27.65;;;13.85;;
35326;SDS011;21436;52.348;20.928;2024-02-15T06:05:19;28.38;;;12.45;;
35326;SDS011;21436;52.348;20.928;2024-02-15T06:07:48;31.40;;;14.07;;
35326;SDS011;21436;52.348;20.928;2024-02-15T06:10:16;28.45;;;13.60;;
35326;SDS011;21436;52.348;20.928;2024-02-15T06:12:45;27.02;;;13.55;;
35326;SDS011;21436;52.348;20.928;2024-02-15T06:15:12;31.13;;;13.32;;
35326;SDS011;21436;52.348;20.928;2024-02-15T06:17:44;30.52;;;14.05;;
35326;SDS011;21436;52.348;20.928;2024-02-15T06:20:12;34.22;;;14.27;;
35326;SDS011;21436;52.348;20.928;2024-02-15T06:22:50;29.95;;;14.27;;
35326;SDS011;21436;52.348;20.928;2024-02-15T06:25:19;31.52;;;14.85;;
35326;SDS011;21436;52.348;20.928;2024-02-15T06:27:52;32.20;;;14.38;;
35326;SDS011;21436;52.348;20.928;2024-02-15T06:30:25;29.95;;;14.93;;
35326;SDS011;21436;52.348;20.928;2024-02-15T06:33:12;34.15;;;15.35;;
35326;SDS011;21436;52.348;20.928;2024-02-15T06:36:03;36.40;;;15.85;;
35326;SDS011;21436;52.348;20.928;2024-02-15T06:38:51;34.58;;;16.13;;
35326;SDS011;21436;52.348;20.928;2024-02-15T06:41:37;35.20;;;15.63;;
35326;SDS011;21436;52.348;20.928;2024-02-15T06:44:05;27.95;;;14.43;;
35326;SDS011;21436;52.348;20.928;2024-02-15T06:46:32;33.75;;;16.42;;
35326;SDS011;21436;52.348;20.928;2024-02-15T06:49:00;35.60;;;16.75;;
35326;SDS011;21436;52.348;20.928;2024-02-15T06:51:28;39.65;;;17.95;;
35326;SDS011;21436;52.348;20.928;2024-02-15T06:53:56;44.88;;;19.17;;
35326;SDS011;21436;52.348;20.928;2024-02-15T06:56:24;45.55;;;20.52;;
35326;SDS011;21436;52.348;20.928;2024-02-15T06:58:52;48.53;;;18.40;;
35326;SDS011;21436;52.348;20.928;2024-02-15T07:01:23;38.13;;;18.40;;
35326;SDS011;21436;52.348;20.928;2024-02-15T07:03:52;42.10;;;19.65;;
35326;SDS011;21436;52.348;20.928;2024-02-15T07:06:25;44.92;;;21.23;;
35326;SDS011;21436;52.348;20.928;2024-02-15T07:08:55;40.92;;;21.08;;
35326;SDS011;21436;52.348;20.928;2024-02-15T07:11:25;44.30;;;21.65;;
35326;SDS011;21436;52.348;20.928;2024-02-15T07:13:53;45.65;;;22.65;;
35326;SDS011;21436;52.348;20.928;2024-02-15T07:16:22;54.80;;;22.20;;
35326;SDS011;21436;52.348;20.928;2024-02-15T07:18:50;52.50;;;23.42;;
35326;SDS011;21436;52.348;20.928;2024-02-15T07:21:18;49.10;;;21.75;;
35326;SDS011;21436;52.348;20.928;2024-02-15T07:23:50;51.80;;;23.90;;
35326;SDS011;21436;52.348;20.928;2024-02-15T07:26:18;50.13;;;22.52;;
35326;SDS011;21436;52.348;20.928;2024-02-15T07:28:47;48.28;;;23.85;;
35326;SDS011;21436;52.348;20.928;2024-02-15T07:31:17;50.33;;;24.15;;
35326;SDS011;21436;52.348;20.928;2024-02-15T07:33:45;49.85;;;23.98;;
35326;SDS011;21436;52.348;20.928;2024-02-15T07:36:13;56.05;;;25.92;;
35326;SDS011;21436;52.348;20.928;2024-02-15T07:38:41;52.90;;;24.33;;
35326;SDS011;21436;52.348;20.928;2024-02-15T07:41:08;59.70;;;24.45;;
35326;SDS011;21436;52.348;20.928;2024-02-15T07:43:36;50.28;;;24.75;;
35326;SDS011;21436;52.348;20.928;2024-02-15T07:46:04;52.70;;;24.40;;
35326;SDS011;21436;52.348;20.928;2024-02-15T07:48:32;54.60;;;25.83;;
35326;SDS011;21436;52.348;20.928;2024-02-15T07:50:59;55.92;;;25.20;;
35326;SDS011;21436;52.348;20.928;2024-02-15T07:53:27;63.03;;;26.77;;
35326;SDS011;21436;52.348;20.928;2024-02-15T07:55:55;59.17;;;26.85;;
35326;SDS011;21436;52.348;20.928;2024-02-15T07:58:23;66.78;;;27.25;;
35326;SDS011;21436;52.348;20.928;2024-02-15T08:00:50;67.28;;;28.40;;
35326;SDS011;21436;52.348;20.928;2024-02-15T08:03:18;62.90;;;27.13;;
35326;SDS011;21436;52.348;20.928;2024-02-15T08:05:46;59.63;;;27.58;;
35326;SDS011;21436;52.348;20.928;2024-02-15T08:08:15;67.90;;;28.90;;
35326;SDS011;21436;52.348;20.928;2024-02-15T08:10:45;58.42;;;27.58;;
35326;SDS011;21436;52.348;20.928;2024-02-15T08:13:15;69.47;;;29.15;;
35326;SDS011;21436;52.348;20.928;2024-02-15T08:15:42;59.17;;;27.55;;
35326;SDS011;21436;52.348;20.928;2024-02-15T08:18:12;62.42;;;28.27;;
35326;SDS011;21436;52.348;20.928;2024-02-15T08:20:40;67.15;;;27.65;;
35326;SDS011;21436;52.348;20.928;2024-02-15T08:23:08;65.07;;;29.17;;
35326;SDS011;21436;52.348;20.928;2024-02-15T08:25:38;67.57;;;28.08;;
35326;SDS011;21436;52.348;20.928;2024-02-15T08:28:07;90.43;;;31.63;;
35326;SDS011;21436;52.348;20.928;2024-02-15T08:30:36;80.97;;;32.10;;
35326;SDS011;21436;52.348;20.928;2024-02-15T08:33:04;79.35;;;30.77;;
35326;SDS011;21436;52.348;20.928;2024-02-15T08:35:32;68.72;;;30.55;;
35326;SDS011;21436;52.348;20.928;2024-02-15T08:38:01;62.85;;;29.48;;
35326;SDS011;21436;52.348;20.928;2024-02-15T08:40:32;61.72;;;30.38;;
35326;SDS011;21436;52.348;20.928;2024-02-15T08:43:01;65.75;;;29.42;;
35326;SDS011;21436;52.348;20.928;2024-02-15T08:45:28;66.22;;;30.45;;
35326;SDS011;21436;52.348;20.928;2024-02-15T08:47:56;77.10;;;31.08;;
35326;SDS011;21436;52.348;20.928;2024-02-15T08:50:24;60.47;;;28.85;;
35326;SDS011;21436;52.348;20.928;2024-02-15T08:52:52;67.38;;;31.25;;
35326;SDS011;21436;52.348;20.928;2024-02-15T08:55:20;73.93;;;32.15;;
35326;SDS011;21436;52.348;20.928;2024-02-15T08:57:52;68.07;;;30.85;;
35326;SDS011;21436;52.348;20.928;2024-02-15T09:00:20;71.63;;;32.08;;
35326;SDS011;21436;52.348;20.928;2024-02-15T09:02:48;73.68;;;32.33;;
35326;SDS011;21436;52.348;20.928;2024-02-15T09:05:17;71.65;;;32.25;;
35326;SDS011;21436;52.348;20.928;2024-02-15T09:07:46;65.65;;;31.85;;
35326;SDS011;21436;52.348;20.928;2024-02-15T09:10:15;73.95;;;33.05;;
35326;SDS011;21436;52.348;20.928;2024-02-15T09:12:45;68.32;;;32.17;;
35326;SDS011;21436;52.348;20.928;2024-02-15T09:15:16;65.55;;;32.58;;
35326;SDS011;21436;52.348;20.928;2024-02-15T09:17:45;72.72;;;33.85;;
35326;SDS011;21436;52.348;20.928;2024-02-15T09:20:15;70.55;;;33.97;;
35326;SDS011;21436;52.348;20.928;2024-02-15T09:22:50;77.13;;;33.72;;
35326;SDS011;21436;52.348;20.928;2024-02-15T09:25:18;71.93;;;32.33;;
35326;SDS011;21436;52.348;20.928;2024-02-15T09:27:47;70.53;;;33.17;;
35326;SDS011;21436;52.348;20.928;2024-02-15T09:30:17;75.15;;;34.47;;
35326;SDS011;21436;52.348;20.928;2024-02-15T09:32:46;77.68;;;36.00;;
35326;SDS011;21436;52.348;20.928;2024-02-15T09:35:13;69.97;;;34.00;;
35326;SDS011;21436;52.348;20.928;2024-02-15T09:37:46;84.22;;;35.97;;
35326;SDS011;21436;52.348;20.928;2024-02-15T09:40:17;74.85;;;35.58;;
35326;SDS011;21436;52.348;20.928;2024-02-15T09:42:47;73.43;;;35.72;;
35326;SDS011;21436;52.348;20.928;2024-02-15T09:45:15;72.15;;;33.47;;
35326;SDS011;21436;52.348;20.928;2024-02-15T09:47:45;76.40;;;34.80;;
35326;SDS011;21436;52.348;20.928;2024-02-15T09:50:14;81.03;;;35.33;;
35326;SDS011;21436;52.348;20.928;2024-02-15T09:52:44;80.35;;;36.17;;
35326;SDS011;21436;52.348;20.928;2024-02-15T09:55:21;80.90;;;36.45;;
35326;SDS011;21436;52.348;20.928;2024-02-15T09:57:51;76.45;;;35.28;;
35326;SDS011;21436;52.348;20.928;2024-02-15T10:00:18;73.47;;;36.17;;
35326;SDS011;21436;52.348;20.928;2024-02-15T10:02:49;72.50;;;34.30;;
35326;SDS011;21436;52.348;20.928;2024-02-15T10:05:18;77.97;;;35.97;;
35326;SDS011;21436;52.348;20.928;2024-02-15T10:07:47;71.75;;;35.85;;
35326;SDS011;21436;52.348;20.928;2024-02-15T10:10:27;75.35;;;34.15;;
35326;SDS011;21436;52.348;20.928;2024-02-15T10:12:58;77.07;;;35.15;;
35326;SDS011;21436;52.348;20.928;2024-02-15T10:15:31;67.88;;;34.92;;
35326;SDS011;21436;52.348;20.928;2024-02-15T10:18:01;73.45;;;34.63;;
35326;SDS011;21436;52.348;20.928;2024-02-15T10:20:30;75.82;;;32.63;;
35326;SDS011;21436;52.348;20.928;2024-02-15T10:25:26;73.13;;;35.63;;
35326;SDS011;21436;52.348;20.928;2024-02-15T10:28:08;68.68;;;33.88;;
35326;SDS011;21436;52.348;20.928;2024-02-15T10:30:39;65.50;;;33.45;;
35326;SDS011;21436;52.348;20.928;2024-02-15T10:33:20;72.95;;;34.10;;
35326;SDS011;21436;52.348;20.928;2024-02-15T10:38:41;62.92;;;32.25;;
35326;SDS011;21436;52.348;20.928;2024-02-15T10:41:09;71.45;;;33.28;;
35326;SDS011;21436;52.348;20.928;2024-02-15T10:43:38;65.90;;;30.58;;
35326;SDS011;21436;52.348;20.928;2024-02-15T10:46:08;64.78;;;31.80;;
35326;SDS011;21436;52.348;20.928;2024-02-15T10:48:38;70.28;;;30.75;;
35326;SDS011;21436;52.348;20.928;2024-02-15T10:51:09;57.78;;;30.13;;
35326;SDS011;21436;52.348;20.928;2024-02-15T10:53:39;69.95;;;31.30;;
35326;SDS011;21436;52.348;20.928;2024-02-15T10:56:15;62.10;;;31.35;;
35326;SDS011;21436;52.348;20.928;2024-02-15T10:58:51;61.92;;;31.98;;
35326;SDS011;21436;52.348;20.928;2024-02-15T11:01:25;69.43;;;32.65;;
35326;SDS011;21436;52.348;20.928;2024-02-15T11:03:59;63.60;;;32.45;;
35326;SDS011;21436;52.348;20.928;2024-02-15T11:06:28;69.50;;;33.28;;
35326;SDS011;21436;52.348;20.928;2024-02-15T11:08:58;64.82;;;31.80;;
35326;SDS011;21436;52.348;20.928;2024-02-15T11:11:27;69.88;;;33.15;;
35326;SDS011;21436;52.348;20.928;2024-02-15T11:17:08;62.20;;;31.30;;
35326;SDS011;21436;52.348;20.928;2024-02-15T11:19:46;66.28;;;32.53;;
35326;SDS011;21436;52.348;20.928;2024-02-15T11:22:15;67.75;;;32.17;;
35326;SDS011;21436;52.348;20.928;2024-02-15T11:24:51;68.93;;;33.90;;
35326;SDS011;21436;52.348;20.928;2024-02-15T11:27:26;72.55;;;35.25;;
35326;SDS011;21436;52.348;20.928;2024-02-15T11:29:57;74.20;;;34.42;;
35326;SDS011;21436;52.348;20.928;2024-02-15T11:32:48;69.40;;;34.22;;
35326;SDS011;21436;52.348;20.928;2024-02-15T11:40:26;71.50;;;34.38;;
35326;SDS011;21436;52.348;20.928;2024-02-15T11:45:29;64.57;;;32.55;;
35326;SDS011;21436;52.348;20.928;2024-02-15T11:48:01;65.82;;;31.65;;
35326;SDS011;21436;52.348;20.928;2024-02-15T11:50:33;69.28;;;32.95;;
35326;SDS011;21436;52.348;20.928;2024-02-15T11:53:05;66.68;;;33.03;;
35326;SDS011;21436;52.348;20.928;2024-02-15T11:55:40;64.90;;;33.75;;
35326;SDS011;21436;52.348;20.928;2024-02-15T11:58:09;60.92;;;32.47;;
35326;SDS011;21436;52.348;20.928;2024-02-15T12:00:38;66.38;;;32.25;;
35326;SDS011;21436;52.348;20.928;2024-02-15T12:03:26;65.07;;;33.30;;
35326;SDS011;21436;52.348;20.928;2024-02-15T12:06:30;62.42;;;32.20;;
35326;SDS011;21436;52.348;20.928;2024-02-15T12:09:18;64.45;;;32.42;;
35326;SDS011;21436;52.348;20.928;2024-02-15T12:12:10;75.65;;;35.88;;
35326;SDS011;21436;52.348;20.928;2024-02-15T12:15:00;74.60;;;31.98;;
35326;SDS011;21436;52.348;20.928;2024-02-15T12:17:48;62.42;;;32.25;;
35326;SDS011;21436;52.348;20.928;2024-02-15T12:20:35;70.07;;;33.60;;
35326;SDS011;21436;52.348;20.928;2024-02-15T12:23:03;72.82;;;34.58;;
35326;SDS011;21436;52.348;20.928;2024-02-15T12:25:35;68.97;;;33.58;;
35326;SDS011;21436;52.348;20.928;2024-02-15T12:28:05;74.97;;;34.22;;
35326;SDS011;21436;52.348;20.928;2024-02-15T12:30:34;68.78;;;33.97;;
35326;SDS011;21436;52.348;20.928;2024-02-15T12:33:09;70.07;;;32.63;;
35326;SDS011;21436;52.348;20.928;2024-02-15T12:35:39;67.18;;;33.75;;
35326;SDS011;21436;52.348;20.928;2024-02-15T12:38:07;65.68;;;32.47;;
35326;SDS011;21436;52.348;20.928;2024-02-15T12:40:37;58.90;;;31.70;;
35326;SDS011;21436;52.348;20.928;2024-02-15T12:43:10;62.42;;;32.45;;
35326;SDS011;21436;52.348;20.928;2024-02-15T12:45:40;75.25;;;35.90;;
35326;SDS011;21436;52.348;20.928;2024-02-15T12:48:09;68.60;;;34.63;;
35326;SDS011;21436;52.348;20.928;2024-02-15T12:50:39;67.55;;;33.88;;
35326;SDS011;21436;52.348;20.928;2024-02-15T12:53:08;73.68;;;33.67;;
35326;SDS011;21436;52.348;20.928;2024-02-15T12:55:37;65.68;;;34.08;;
35326;SDS011;21436;52.348;20.928;2024-02-15T12:58:12;64.25;;;32.92;;
35326;SDS011;21436;52.348;20.928;2024-02-15T13:00:44;75.68;;;35.75;;
35326;SDS011;21436;52.348;20.928;2024-02-15T13:03:15;66.78;;;34.25;;
35326;SDS011;21436;52.348;20.928;2024-02-15T13:05:47;66.63;;;33.87;;
35326;SDS011;21436;52.348;20.928;2024-02-15T13:08:17;69.38;;;35.63;;
35326;SDS011;21436;52.348;20.928;2024-02-15T13:10:46;65.57;;;33.47;;
35326;SDS011;21436;52.348;20.928;2024-02-15T13:13:15;62.88;;;32.10;;
35326;SDS011;21436;52.348;20.928;2024-02-15T13:15:44;74.88;;;35.42;;
35326;SDS011;21436;52.348;20.928;2024-02-15T13:18:16;53.53;;;27.83;;
35326;SDS011;21436;52.348;20.928;2024-02-15T13:20:46;71.07;;;36.50;;
35326;SDS011;21436;52.348;20.928;2024-02-15T13:23:17;73.55;;;37.30;;
35326;SDS011;21436;52.348;20.928;2024-02-15T13:25:53;80.47;;;37.72;;
35326;SDS011;21436;52.348;20.928;2024-02-15T13:28:24;65.93;;;34.50;;
35326;SDS011;21436;52.348;20.928;2024-02-15T13:30:52;66.78;;;35.67;;
35326;SDS011;21436;52.348;20.928;2024-02-15T13:33:24;75.22;;;36.33;;
35326;SDS011;21436;52.348;20.928;2024-02-15T13:35:54;83.00;;;37.33;;
35326;SDS011;21436;52.348;20.928;2024-02-15T13:38:22;74.30;;;35.42;;
35326;SDS011;21436;52.348;20.928;2024-02-15T13:40:51;69.22;;;36.72;;
35326;SDS011;21436;52.348;20.928;2024-02-15T13:43:23;77.90;;;36.80;;
35326;SDS011;21436;52.348;20.928;2024-02-15T13:45:51;76.18;;;35.55;;
35326;SDS011;21436;52.348;20.928;2024-02-15T13:48:20;67.72;;;35.92;;
35326;SDS011;21436;52.348;20.928;2024-02-15T13:50:49;70.28;;;35.10;;
35326;SDS011;21436;52.348;20.928;2024-02-15T13:53:21;71.55;;;34.53;;
35326;SDS011;21436;52.348;20.928;2024-02-15T13:55:52;66.80;;;34.67;;
35326;SDS011;21436;52.348;20.928;2024-02-15T13:58:20;61.47;;;33.38;;
35326;SDS011;21436;52.348;20.928;2024-02-15T14:00:48;68.05;;;33.75;;
35326;SDS011;21436;52.348;20.928;2024-02-15T14:03:16;68.70;;;33.42;;
35326;SDS011;21436;52.348;20.928;2024-02-15T14:05:46;65.82;;;33.17;;
35326;SDS011;21436;52.348;20.928;2024-02-15T14:08:15;58.03;;;32.25;;
35326;SDS011;21436;52.348;20.928;2024-02-15T14:10:43;69.20;;;33.22;;
35326;SDS011;21436;52.348;20.928;2024-02-15T14:13:12;60.88;;;33.95;;
35326;SDS011;21436;52.348;20.928;2024-02-15T14:15:41;59.90;;;32.88;;
35326;SDS011;21436;52.348;20.928;2024-02-15T14:18:11;63.35;;;32.88;;
35326;SDS011;21436;52.348;20.928;2024-02-15T14:20:46;64.95;;;34.05;;
35326;SDS011;21436;52.348;20.928;2024-02-15T14:23:15;67.15;;;32.40;;
35326;SDS011;21436;52.348;20.928;2024-02-15T14:25:44;73.50;;;33.05;;
35326;SDS011;21436;52.348;20.928;2024-02-15T14:28:13;70.07;;;32.28;;
35326;SDS011;21436;52.348;20.928;2024-02-15T14:30:42;68.78;;;34.30;;
35326;SDS011;21436;52.348;20.928;2024-02-15T14:33:29;71.20;;;32.80;;
35326;SDS011;21436;52.348;20.928;2024-02-15T14:36:00;64.63;;;31.17;;
35326;SDS011;21436;52.348;20.928;2024-02-15T14:38:29;69.60;;;33.30;;
35326;SDS011;21436;52.348;20.928;2024-02-15T14:40:57;60.88;;;32.40;;
35326;SDS011;21436;52.348;20.928;2024-02-15T14:43:30;65.80;;;31.70;;
35326;SDS011;21436;52.348;20.928;2024-02-15T14:45:59;56.60;;;29.98;;
35326;SDS011;21436;52.348;20.928;2024-02-15T14:48:32;64.63;;;31.50;;
35326;SDS011;21436;52.348;20.928;2024-02-15T14:51:02;62.42;;;32.50;;